createdAt,value
2023-03-06T00:00:21.346Z,2.61
2023-03-06T00:02:47.620Z,2.63
2023-03-06T00:05:13.877Z,2.63
2023-03-06T00:07:40.212Z,2.65
2023-03-06T00:10:06.464Z,2.64
2023-03-06T00:12:32.725Z,2.64
2023-03-06T00:14:59.033Z,2.62
2023-03-06T00:17:25.295Z,2.61
2023-03-06T00:19:51.540Z,2.61
2023-03-06T00:22:17.803Z,2.62
2023-03-06T00:24:44.078Z,2.61
2023-03-06T00:27:10.345Z,2.57
2023-03-06T00:29:36.647Z,2.53
2023-03-06T00:32:02.936Z,2.54
2023-03-06T00:34:29.208Z,2.48
2023-03-06T00:36:55.679Z,2.42
2023-03-06T00:39:22.007Z,2.36
2023-03-06T00:41:48.283Z,2.35
2023-03-06T00:44:14.557Z,2.30
2023-03-06T00:46:40.829Z,2.24
2023-03-06T00:49:07.271Z,2.23
2023-03-06T00:51:33.535Z,2.19
2023-03-06T00:53:59.792Z,2.17
2023-03-06T00:56:26.054Z,2.20
2023-03-06T00:58:52.336Z,2.18
2023-03-06T01:01:18.624Z,2.14
2023-03-06T01:03:44.932Z,2.13
2023-03-06T01:06:11.213Z,2.05
2023-03-06T01:08:37.482Z,1.97
2023-03-06T01:11:03.749Z,1.93
2023-03-06T01:13:30.066Z,1.89
2023-03-06T01:15:56.341Z,1.81
2023-03-06T01:18:22.709Z,1.74
2023-03-06T01:20:48.991Z,1.71
2023-03-06T01:23:15.262Z,1.64
2023-03-06T01:25:41.553Z,1.57
2023-03-06T01:28:07.822Z,1.50
2023-03-06T01:30:34.109Z,1.45
2023-03-06T01:33:00.357Z,1.38
2023-03-06T01:35:26.657Z,1.35
2023-03-06T01:37:52.963Z,1.27
2023-03-06T01:40:19.242Z,1.24
2023-03-06T01:42:46.803Z,1.28
2023-03-06T01:45:13.176Z,1.25
2023-03-06T01:47:39.457Z,1.20
2023-03-06T01:50:05.732Z,1.20
2023-03-06T01:52:31.992Z,1.19
2023-03-06T01:54:58.292Z,1.14
2023-03-06T01:57:24.561Z,1.08
2023-03-06T01:59:50.822Z,1.08
2023-03-06T02:02:17.128Z,1.04
2023-03-06T02:04:43.431Z,1.00
2023-03-06T02:07:09.733Z,1.00
2023-03-06T02:09:35.982Z,0.98
2023-03-06T02:12:02.287Z,1.00
2023-03-06T02:14:28.578Z,0.96
2023-03-06T02:16:54.898Z,0.96
2023-03-06T02:19:21.237Z,0.98
2023-03-06T02:21:47.519Z,0.95
2023-03-06T02:24:13.810Z,1.00
2023-03-06T02:26:40.080Z,0.95
2023-03-06T02:29:06.344Z,0.97
2023-03-06T02:31:32.649Z,0.96
2023-03-06T02:33:58.979Z,1.00
2023-03-06T02:36:25.281Z,0.99
2023-03-06T02:38:51.532Z,1.01
2023-03-06T02:41:17.828Z,1.05
2023-03-06T02:43:44.119Z,1.09
2023-03-06T02:46:10.508Z,1.14
2023-03-06T02:48:36.820Z,1.13
2023-03-06T02:51:03.107Z,1.12
2023-03-06T02:53:29.388Z,1.06
2023-03-06T02:55:55.640Z,1.09
2023-03-06T02:58:21.955Z,1.05
2023-03-06T03:00:48.233Z,1.00
2023-03-06T03:03:14.534Z,0.98
2023-03-06T03:05:40.809Z,0.95
2023-03-06T03:08:07.070Z,0.98
2023-03-06T03:10:33.342Z,0.95
2023-03-06T03:12:59.605Z,0.95
2023-03-06T03:15:25.881Z,0.94
2023-03-06T03:17:52.253Z,0.96
2023-03-06T03:20:18.529Z,0.95
2023-03-06T03:22:44.787Z,0.95
2023-03-06T03:25:11.061Z,0.93
2023-03-06T03:27:37.355Z,0.94
2023-03-06T03:30:03.622Z,0.89
2023-03-06T03:32:29.897Z,0.86
2023-03-06T03:34:56.202Z,0.83
2023-03-06T03:37:22.493Z,0.84
2023-03-06T03:39:48.785Z,0.86
2023-03-06T03:42:15.057Z,0.80
2023-03-06T03:44:41.344Z,0.77
2023-03-06T03:47:07.615Z,0.70
2023-03-06T03:49:33.872Z,0.73
2023-03-06T03:52:00.196Z,0.67
2023-03-06T03:54:26.508Z,0.63
2023-03-06T03:56:52.770Z,0.63
2023-03-06T03:59:19.029Z,0.72
2023-03-06T04:01:45.310Z,0.69
2023-03-06T04:04:11.629Z,0.73
2023-03-06T04:06:37.910Z,0.70
2023-03-06T04:09:04.183Z,0.74
2023-03-06T04:11:30.449Z,0.74
2023-03-06T04:13:56.715Z,0.76
2023-03-06T04:16:23.139Z,0.72
2023-03-06T04:18:49.497Z,0.72
2023-03-06T04:21:15.762Z,0.73
2023-03-06T04:23:42.053Z,0.72
2023-03-06T04:26:08.331Z,0.72
2023-03-06T04:28:34.614Z,0.69
2023-03-06T04:31:00.867Z,0.70
2023-03-06T04:33:27.146Z,0.70
2023-03-06T04:35:53.475Z,0.72
2023-03-06T04:38:19.805Z,0.71
2023-03-06T04:40:46.071Z,0.73
2023-03-06T04:43:12.554Z,0.71
2023-03-06T04:45:38.863Z,0.68
2023-03-06T04:48:05.246Z,0.63
2023-03-06T04:50:31.528Z,0.62
2023-03-06T04:52:57.790Z,0.59
2023-03-06T04:55:24.058Z,0.58
2023-03-06T04:57:50.641Z,0.57
2023-03-06T05:00:17.975Z,0.58
2023-03-06T05:02:44.262Z,0.59
2023-03-06T05:05:10.523Z,0.62
2023-03-06T05:07:36.789Z,0.65
2023-03-06T05:10:03.079Z,0.69
2023-03-06T05:12:29.354Z,0.67
2023-03-06T05:14:55.651Z,0.71
2023-03-06T05:17:21.933Z,0.71
2023-03-06T05:19:48.198Z,0.72
2023-03-06T05:22:14.458Z,0.72
2023-03-06T05:24:40.745Z,0.70
2023-03-06T05:27:07.016Z,0.71
2023-03-06T05:29:33.261Z,0.70
2023-03-06T05:31:59.592Z,0.67
2023-03-06T05:34:26.068Z,0.63
2023-03-06T05:36:52.354Z,0.57
2023-03-06T05:39:18.662Z,0.55
2023-03-06T05:41:44.949Z,0.55
2023-03-06T05:44:11.251Z,0.55
2023-03-06T05:46:37.518Z,0.54
2023-03-06T05:49:03.780Z,0.54
2023-03-06T05:51:30.039Z,0.58
2023-03-06T05:53:56.336Z,0.63
2023-03-06T05:56:22.586Z,0.67
2023-03-06T05:58:48.843Z,0.69
2023-03-06T06:01:15.128Z,0.71
2023-03-06T06:03:41.580Z,0.73
2023-03-06T06:06:07.912Z,0.73
2023-03-06T06:08:34.198Z,0.73
2023-03-06T06:11:00.533Z,0.73
2023-03-06T06:13:26.826Z,0.78
2023-03-06T06:15:53.144Z,0.81
2023-03-06T06:18:19.462Z,0.81
2023-03-06T06:20:45.759Z,0.85
2023-03-06T06:23:12.039Z,0.87
2023-03-06T06:25:38.328Z,0.91
2023-03-06T06:28:04.637Z,0.91
2023-03-06T06:30:30.913Z,0.91
2023-03-06T06:32:57.215Z,0.90
2023-03-06T06:35:23.490Z,0.90
2023-03-06T06:37:49.795Z,0.91
2023-03-06T06:40:16.070Z,0.89
2023-03-06T06:42:42.374Z,0.89
2023-03-06T06:45:08.688Z,0.90
2023-03-06T06:47:35.040Z,0.89
2023-03-06T06:50:01.350Z,0.87
2023-03-06T06:52:27.637Z,0.88
2023-03-06T06:54:53.923Z,0.89
2023-03-06T06:57:20.193Z,0.91
2023-03-06T06:59:46.492Z,0.98
2023-03-06T07:02:12.766Z,1.00
2023-03-06T07:04:44.290Z,1.05
2023-03-06T07:07:15.491Z,1.06
2023-03-06T07:09:41.781Z,1.09
2023-03-06T07:12:08.043Z,1.16
2023-03-06T07:14:34.336Z,1.20
2023-03-06T07:17:00.611Z,1.22
2023-03-06T07:19:26.899Z,1.25
2023-03-06T07:21:53.179Z,1.24
2023-03-06T07:24:19.513Z,1.28
2023-03-06T07:26:45.771Z,1.34
2023-03-06T07:29:12.063Z,1.36
2023-03-06T07:31:38.469Z,1.38
2023-03-06T07:34:05.178Z,1.40
2023-03-06T07:36:31.470Z,1.44
2023-03-06T07:38:57.746Z,1.47
2023-03-06T07:41:24.020Z,1.48
2023-03-06T07:43:50.341Z,1.53
2023-03-06T07:46:16.753Z,1.60
2023-03-06T07:48:43.109Z,1.66
2023-03-06T07:51:09.384Z,1.69
2023-03-06T07:53:35.691Z,1.75
2023-03-06T07:56:01.965Z,1.80
2023-03-06T07:58:28.282Z,1.88
2023-03-06T08:00:54.560Z,1.90
2023-03-06T08:03:20.841Z,1.93
2023-03-06T08:05:47.105Z,1.99
2023-03-06T08:08:13.375Z,2.06
2023-03-06T08:10:39.646Z,2.11
2023-03-06T08:13:05.990Z,2.17
2023-03-06T08:15:32.285Z,2.22
2023-03-06T08:17:58.549Z,2.28
2023-03-06T08:20:24.862Z,2.34
2023-03-06T08:22:51.158Z,2.41
2023-03-06T08:25:17.456Z,2.48
2023-03-06T08:27:43.785Z,2.55
2023-03-06T08:30:10.087Z,2.60
2023-03-06T08:32:36.425Z,2.68
2023-03-06T08:35:02.741Z,2.77
2023-03-06T08:37:29.080Z,2.84
2023-03-06T08:39:55.364Z,2.93
2023-03-06T08:42:21.624Z,3.01
2023-03-06T08:44:47.938Z,3.07
2023-03-06T08:47:14.202Z,3.11
2023-03-06T08:49:40.510Z,3.18
2023-03-06T08:52:06.770Z,3.20
2023-03-06T08:54:33.020Z,3.24
2023-03-06T08:56:59.290Z,3.29
2023-03-06T08:59:25.556Z,3.38
2023-03-06T09:01:51.830Z,3.53
2023-03-06T09:04:18.101Z,3.52
2023-03-06T09:06:44.385Z,3.56
2023-03-06T09:09:10.663Z,3.70
2023-03-06T09:11:36.927Z,3.71
2023-03-06T09:14:03.216Z,3.86
2023-03-06T09:16:29.550Z,3.95
2023-03-06T09:18:55.857Z,4.02
2023-03-06T09:21:22.165Z,3.99
2023-03-06T09:23:48.425Z,4.16
2023-03-06T09:26:14.684Z,4.15
2023-03-06T09:28:40.968Z,4.27
2023-03-06T09:31:07.308Z,4.25
2023-03-06T09:33:33.657Z,4.32
2023-03-06T09:36:00.013Z,4.29
2023-03-06T09:38:26.318Z,4.38
2023-03-06T09:40:52.586Z,4.43
2023-03-06T09:43:18.852Z,4.57
2023-03-06T09:45:45.157Z,4.64
2023-03-06T09:48:11.528Z,4.68
2023-03-06T09:50:37.866Z,4.66
2023-03-06T09:53:04.142Z,4.69
2023-03-06T09:55:30.422Z,4.72
2023-03-06T09:57:56.689Z,4.92
2023-03-06T10:00:23.017Z,5.00
2023-03-06T10:02:49.448Z,5.08
2023-03-06T10:05:15.820Z,5.12
2023-03-06T10:07:42.098Z,5.10
2023-03-06T10:10:08.369Z,5.10
2023-03-06T10:12:34.655Z,5.15
2023-03-06T10:15:00.907Z,5.13
2023-03-06T10:17:27.168Z,5.22
2023-03-06T10:19:53.452Z,5.20
2023-03-06T10:22:19.736Z,5.26
2023-03-06T10:24:46.048Z,5.31
2023-03-06T10:27:12.373Z,5.22
2023-03-06T10:29:39.287Z,5.29
2023-03-06T10:32:05.612Z,5.27
2023-03-06T10:34:31.902Z,5.41
2023-03-06T10:36:58.171Z,5.50
2023-03-06T10:39:24.455Z,5.54
2023-03-06T10:41:50.767Z,5.64
2023-03-06T10:44:17.027Z,5.73
2023-03-06T10:46:43.409Z,5.74
2023-03-06T10:49:09.772Z,5.74
2023-03-06T10:51:36.057Z,5.79
2023-03-06T10:54:02.322Z,5.77
2023-03-06T10:56:28.610Z,5.85
2023-03-06T10:58:54.882Z,5.96
2023-03-06T11:01:21.238Z,6.03
2023-03-06T11:03:47.585Z,6.00
2023-03-06T11:06:13.872Z,6.04
2023-03-06T11:08:40.222Z,6.07
2023-03-06T11:11:06.518Z,6.00
2023-03-06T11:13:32.797Z,6.05
2023-03-06T11:15:59.113Z,6.05
2023-03-06T11:18:25.428Z,6.04
2023-03-06T11:20:53.143Z,6.00
2023-03-06T11:23:19.562Z,5.99
2023-03-06T11:25:45.855Z,5.99
2023-03-06T11:28:12.104Z,5.90
2023-03-06T11:30:38.375Z,5.96
2023-03-06T11:33:04.680Z,6.03
2023-03-06T11:35:30.979Z,6.06
2023-03-06T11:37:57.328Z,6.09
2023-03-06T11:40:23.635Z,6.10
2023-03-06T11:42:49.908Z,5.91
2023-03-06T11:45:16.206Z,6.00
2023-03-06T11:47:42.463Z,6.00
2023-03-06T11:50:08.838Z,6.01
2023-03-06T11:52:35.158Z,6.13
2023-03-06T11:55:01.484Z,6.24
2023-03-06T11:57:27.785Z,6.33
2023-03-06T11:59:54.086Z,6.39
2023-03-06T12:02:20.374Z,6.36
2023-03-06T12:04:46.650Z,6.46
2023-03-06T12:07:12.934Z,6.60
2023-03-06T12:09:39.225Z,6.77
2023-03-06T12:12:05.486Z,6.92
2023-03-06T12:14:31.759Z,6.98
2023-03-06T12:16:58.038Z,6.96
2023-03-06T12:19:24.341Z,7.03
2023-03-06T12:21:50.640Z,7.21
2023-03-06T12:24:16.913Z,7.11
2023-03-06T12:26:43.244Z,7.21
2023-03-06T12:29:09.553Z,7.34
2023-03-06T12:31:35.877Z,7.46
2023-03-06T12:34:02.200Z,7.60
2023-03-06T12:36:28.496Z,7.77
2023-03-06T12:38:54.794Z,7.69
2023-03-06T12:41:21.103Z,7.88
2023-03-06T12:43:47.381Z,7.91
2023-03-06T12:46:13.783Z,8.06
2023-03-06T12:48:40.078Z,8.31
2023-03-06T12:51:06.360Z,8.26
2023-03-06T12:53:32.647Z,8.41
2023-03-06T12:55:58.971Z,8.41
2023-03-06T12:58:25.242Z,8.39
2023-03-06T13:00:55.386Z,8.65
2023-03-06T13:03:24.962Z,8.72
2023-03-06T13:05:51.256Z,8.82
2023-03-06T13:08:17.542Z,8.84
2023-03-06T13:10:43.816Z,8.98
2023-03-06T13:13:10.122Z,9.06
2023-03-06T13:15:36.400Z,9.04
2023-03-06T13:18:02.671Z,9.06
2023-03-06T13:20:28.929Z,9.22
2023-03-06T13:22:55.233Z,8.89
2023-03-06T13:25:21.545Z,9.20
2023-03-06T13:27:47.889Z,9.35
2023-03-06T13:30:14.148Z,9.49
2023-03-06T13:32:40.463Z,9.49
2023-03-06T13:35:06.752Z,9.70
2023-03-06T13:37:32.999Z,9.84
2023-03-06T13:39:59.265Z,9.87
2023-03-06T13:42:25.563Z,9.87
2023-03-06T13:44:51.865Z,9.81
2023-03-06T13:47:18.160Z,9.84
2023-03-06T13:49:44.423Z,10.03
2023-03-06T13:52:10.793Z,10.21
2023-03-06T13:54:37.089Z,10.26
2023-03-06T13:57:03.372Z,10.26
2023-03-06T13:59:29.637Z,10.40
2023-03-06T14:01:55.913Z,10.46
2023-03-06T14:04:22.198Z,10.55
2023-03-06T14:06:48.481Z,10.78
2023-03-06T14:09:14.738Z,11.02
2023-03-06T14:11:41.024Z,11.27
2023-03-06T14:14:07.304Z,11.34
2023-03-06T14:16:47.592Z,11.31
2023-03-06T14:19:15.899Z,11.25
2023-03-06T14:21:42.229Z,11.09
2023-03-06T14:24:08.584Z,11.15
2023-03-06T14:26:34.867Z,11.34
2023-03-06T14:29:01.145Z,11.45
2023-03-06T14:31:27.466Z,11.26
2023-03-06T14:33:53.774Z,11.33
2023-03-06T14:36:20.085Z,11.58
2023-03-06T14:38:46.372Z,11.77
2023-03-06T14:41:14.116Z,11.88
2023-03-06T14:43:40.517Z,12.12
2023-03-06T14:46:06.815Z,12.35
2023-03-06T14:48:33.158Z,12.43
2023-03-06T14:50:59.436Z,12.58
2023-03-06T14:53:25.712Z,12.64
2023-03-06T14:55:52.047Z,12.67
2023-03-06T14:58:18.386Z,12.73
2023-03-06T15:00:44.780Z,12.87
2023-03-06T15:03:11.114Z,12.98
2023-03-06T15:05:37.396Z,12.91
2023-03-06T15:08:03.680Z,12.97
2023-03-06T15:10:29.988Z,12.89
2023-03-06T15:12:56.250Z,12.84
2023-03-06T15:15:22.529Z,12.87
2023-03-06T15:17:48.806Z,12.99
2023-03-06T15:20:15.080Z,12.99
2023-03-06T15:22:41.363Z,12.76
2023-03-06T15:25:07.648Z,12.54
2023-03-06T15:27:33.939Z,12.23
2023-03-06T15:30:00.216Z,12.08
2023-03-06T15:32:26.560Z,12.13
2023-03-06T15:34:52.866Z,12.14
2023-03-06T15:37:19.144Z,12.17
2023-03-06T15:39:45.436Z,12.13
2023-03-06T15:42:11.725Z,12.19
2023-03-06T15:44:38.028Z,12.18
2023-03-06T15:47:11.308Z,12.22
2023-03-06T15:49:37.596Z,12.25
2023-03-06T15:52:03.921Z,12.31
2023-03-06T15:54:32.766Z,12.30
2023-03-06T15:56:59.228Z,12.16
2023-03-06T15:59:25.515Z,12.06
2023-03-06T16:01:51.783Z,12.09
2023-03-06T16:04:18.070Z,11.89
2023-03-06T16:06:44.373Z,11.86
2023-03-06T16:09:10.709Z,11.93
2023-03-06T16:11:43.755Z,11.93
2023-03-06T16:14:10.422Z,11.79
2023-03-06T16:16:36.751Z,11.72
2023-03-06T16:19:03.074Z,11.63
2023-03-06T16:21:29.359Z,11.50
2023-03-06T16:23:55.643Z,11.58
2023-03-06T16:26:21.937Z,11.41
2023-03-06T16:28:48.283Z,11.47
2023-03-06T16:31:14.625Z,11.38
2023-03-06T16:33:40.961Z,11.34
2023-03-06T16:36:07.249Z,11.31
2023-03-06T16:38:33.533Z,11.08
2023-03-06T16:40:59.903Z,10.98
2023-03-06T16:43:26.193Z,10.84
2023-03-06T16:45:52.651Z,10.73
2023-03-06T16:48:18.945Z,10.39
2023-03-06T16:50:45.271Z,10.37
2023-03-06T16:53:11.602Z,10.34
2023-03-06T16:55:37.891Z,10.14
2023-03-06T16:58:04.196Z,9.73
2023-03-06T17:00:31.374Z,9.62
2023-03-06T17:02:57.695Z,9.56
2023-03-06T17:05:24.003Z,9.46
2023-03-06T17:07:50.337Z,9.50
2023-03-06T17:10:16.652Z,9.44
2023-03-06T17:12:42.943Z,9.43
2023-03-06T17:15:09.202Z,9.36
2023-03-06T17:17:35.535Z,9.15
2023-03-06T17:20:01.834Z,9.09
2023-03-06T17:22:28.151Z,8.74
2023-03-06T17:24:54.448Z,8.68
2023-03-06T17:27:20.702Z,8.57
2023-03-06T17:29:46.972Z,8.59
2023-03-06T17:32:13.289Z,8.40
2023-03-06T17:34:39.611Z,8.44
2023-03-06T17:37:05.915Z,8.30
2023-03-06T17:39:32.204Z,8.19
2023-03-06T17:41:58.448Z,8.16
2023-03-06T17:44:24.745Z,8.14
2023-03-06T17:46:51.030Z,8.12
2023-03-06T17:49:17.341Z,8.06
2023-03-06T17:51:43.605Z,8.06
2023-03-06T17:54:09.862Z,8.09
2023-03-06T17:56:36.190Z,8.07
2023-03-06T17:59:02.451Z,8.04
2023-03-06T18:01:28.766Z,8.00
2023-03-06T18:03:55.043Z,8.01
2023-03-06T18:06:21.317Z,8.00
2023-03-06T18:08:47.591Z,8.01
2023-03-06T18:11:13.865Z,8.00
2023-03-06T18:13:40.200Z,8.01
2023-03-06T18:16:06.525Z,7.99
2023-03-06T18:18:32.812Z,7.98
2023-03-06T18:20:59.073Z,7.93
2023-03-06T18:23:25.352Z,7.91
2023-03-06T18:25:51.708Z,7.87
2023-03-06T18:28:19.676Z,7.82
2023-03-06T18:30:46.111Z,7.80
2023-03-06T18:33:12.574Z,7.75
2023-03-06T18:35:38.890Z,7.74
2023-03-06T18:38:05.238Z,7.70
2023-03-06T18:40:31.527Z,7.66
2023-03-06T18:42:57.791Z,7.65
2023-03-06T18:45:24.072Z,7.59
2023-03-06T18:47:50.344Z,7.55
2023-03-06T18:50:16.609Z,7.50
2023-03-06T18:52:42.907Z,7.45
2023-03-06T18:55:09.239Z,7.43
2023-03-06T18:57:35.526Z,7.36
2023-03-06T19:00:01.832Z,7.32
2023-03-06T19:02:28.137Z,7.30
2023-03-06T19:04:54.390Z,7.29
2023-03-06T19:07:20.665Z,7.25
2023-03-06T19:09:46.948Z,7.19
2023-03-06T19:12:13.233Z,7.15
2023-03-06T19:14:39.508Z,7.07
2023-03-06T19:17:05.787Z,6.84
2023-03-06T19:19:32.089Z,6.43
2023-03-06T19:21:58.373Z,6.35
2023-03-06T19:24:24.662Z,6.29
2023-03-06T19:26:50.976Z,6.29
2023-03-06T19:29:17.233Z,5.95
2023-03-06T19:31:43.584Z,5.64
2023-03-06T19:34:09.925Z,5.59
2023-03-06T19:36:36.341Z,5.40
2023-03-06T19:39:02.595Z,5.37
2023-03-06T19:41:28.877Z,5.46
2023-03-06T19:43:55.153Z,5.40
2023-03-06T19:46:21.463Z,5.41
2023-03-06T19:48:47.813Z,5.48
2023-03-06T19:51:14.079Z,5.58
2023-03-06T19:53:40.380Z,5.50
2023-03-06T19:56:06.640Z,5.41
2023-03-06T19:58:32.942Z,5.55
2023-03-06T20:00:59.248Z,5.45
2023-03-06T20:03:25.547Z,5.36
2023-03-06T20:05:51.876Z,5.02
2023-03-06T20:08:18.239Z,5.08
2023-03-06T20:10:44.512Z,5.04
2023-03-06T20:13:10.771Z,4.94
2023-03-06T20:15:37.202Z,4.80
2023-03-06T20:18:03.542Z,4.87
2023-03-06T20:20:29.868Z,4.90
2023-03-06T20:22:56.212Z,4.94
2023-03-06T20:25:22.508Z,4.93
2023-03-06T20:27:48.788Z,4.89
2023-03-06T20:30:15.058Z,4.95
2023-03-06T20:32:41.381Z,5.05
2023-03-06T20:35:07.650Z,5.13
2023-03-06T20:37:33.957Z,5.16
2023-03-06T20:40:00.254Z,5.23
2023-03-06T20:42:26.521Z,5.28
2023-03-06T20:44:52.825Z,5.33
2023-03-06T20:47:19.099Z,5.32
2023-03-06T20:49:45.384Z,5.35
2023-03-06T20:52:11.693Z,5.36
2023-03-06T20:54:37.956Z,5.36
2023-03-06T20:57:04.316Z,5.37
2023-03-06T20:59:30.771Z,5.37
2023-03-06T21:01:57.122Z,5.36
2023-03-06T21:04:23.405Z,5.37
2023-03-06T21:06:49.674Z,5.37
2023-03-06T21:09:15.950Z,5.38
2023-03-06T21:11:42.247Z,5.36
2023-03-06T21:14:08.559Z,5.37
2023-03-06T21:16:34.848Z,5.38
2023-03-06T21:19:01.133Z,5.36
2023-03-06T21:21:27.401Z,5.34
2023-03-06T21:23:53.841Z,5.35
2023-03-06T21:26:20.117Z,5.35
2023-03-06T21:28:46.421Z,5.37
2023-03-06T21:31:12.729Z,5.33
2023-03-06T21:33:39.025Z,5.34
2023-03-06T21:36:05.312Z,5.34
2023-03-06T21:38:31.593Z,5.33
2023-03-06T21:40:57.891Z,5.32
2023-03-06T21:43:24.170Z,5.33
2023-03-06T21:45:50.469Z,5.31
2023-03-06T21:48:16.807Z,5.34
2023-03-06T21:50:43.086Z,5.35
2023-03-06T21:53:09.368Z,5.40
2023-03-06T21:55:35.633Z,5.42
2023-03-06T21:58:01.986Z,5.47
2023-03-06T22:00:28.261Z,5.47
2023-03-06T22:02:54.542Z,5.48
2023-03-06T22:05:20.834Z,5.45
2023-03-06T22:07:47.099Z,5.46
2023-03-06T22:10:13.364Z,5.42
2023-03-06T22:12:39.652Z,5.41
2023-03-06T22:15:05.943Z,5.38
2023-03-06T22:17:32.254Z,5.35
2023-03-06T22:19:58.533Z,5.33
2023-03-06T22:22:24.828Z,5.30
2023-03-06T22:24:51.136Z,5.30
2023-03-06T22:27:17.466Z,5.30
2023-03-06T22:29:43.755Z,5.29
2023-03-06T22:32:10.128Z,5.28
2023-03-06T22:34:36.462Z,5.27
2023-03-06T22:37:02.783Z,5.28
2023-03-06T22:39:29.056Z,5.27
2023-03-06T22:41:55.342Z,5.23
2023-03-06T22:44:21.613Z,5.23
2023-03-06T22:46:47.879Z,5.24
2023-03-06T22:49:14.165Z,5.25
2023-03-06T22:51:40.472Z,5.28
2023-03-06T22:54:06.731Z,5.23
2023-03-06T22:56:33.009Z,5.23
2023-03-06T22:58:59.316Z,5.25
2023-03-06T23:01:25.635Z,5.24
2023-03-06T23:03:52.036Z,5.23
2023-03-06T23:06:18.321Z,5.25
2023-03-06T23:08:44.615Z,5.24
2023-03-06T23:11:10.901Z,5.25
2023-03-06T23:13:37.189Z,5.25
2023-03-06T23:16:03.519Z,5.27
2023-03-06T23:18:29.850Z,5.26
2023-03-06T23:20:56.111Z,5.27
2023-03-06T23:23:22.366Z,5.25
2023-03-06T23:25:48.652Z,5.25
2023-03-06T23:28:14.907Z,5.25
2023-03-06T23:30:41.193Z,5.25
2023-03-06T23:33:07.448Z,5.22
2023-03-06T23:35:33.795Z,5.22
2023-03-06T23:38:00.397Z,5.21
2023-03-06T23:40:26.744Z,5.19
2023-03-06T23:42:53.006Z,5.17
2023-03-06T23:45:19.300Z,5.12
2023-03-06T23:47:45.582Z,5.07
2023-03-06T23:50:12.076Z,5.07
2023-03-06T23:52:38.357Z,5.05
2023-03-06T23:55:04.629Z,5.05
2023-03-06T23:57:30.924Z,5.03
2023-03-06T23:59:57.217Z,5.01
